createdAt,value
2022-08-28T00:00:41.671Z,73.20
2022-08-28T00:03:10.489Z,73.20
2022-08-28T00:05:39.490Z,73.30
2022-08-28T00:08:08.095Z,73.40
2022-08-28T00:10:35.686Z,73.50
2022-08-28T00:13:02.504Z,73.60
2022-08-28T00:15:32.747Z,74.60
2022-08-28T00:18:00.060Z,73.90
2022-08-28T00:20:27.926Z,73.90
2022-08-28T00:22:55.539Z,73.80
2022-08-28T00:25:25.158Z,73.90
2022-08-28T00:27:55.272Z,74.00
2022-08-28T00:30:45.198Z,74.10
2022-08-28T00:33:38.066Z,74.20
2022-08-28T00:36:05.200Z,74.50
2022-08-28T00:38:31.976Z,74.40
2022-08-28T00:41:03.753Z,74.50
2022-08-28T00:43:42.875Z,74.50
2022-08-28T00:46:23.400Z,74.80
2022-08-28T00:48:50.890Z,74.90
2022-08-28T00:51:38.657Z,74.80
2022-08-28T00:54:07.947Z,74.90
2022-08-28T00:56:36.040Z,75.00
2022-08-28T00:59:09.016Z,75.00
2022-08-28T01:01:36.400Z,75.00
2022-08-28T01:04:06.165Z,75.00
2022-08-28T01:06:34.209Z,75.20
2022-08-28T01:09:01.116Z,75.20
2022-08-28T01:11:29.031Z,75.20
2022-08-28T01:14:01.959Z,75.60
2022-08-28T01:16:33.061Z,75.60
2022-08-28T01:19:02.481Z,75.50
2022-08-28T01:21:36.643Z,75.70
2022-08-28T01:24:09.748Z,76.00
2022-08-28T01:26:38.472Z,76.10
2022-08-28T01:29:08.203Z,76.30
2022-08-28T01:31:36.708Z,76.10
2022-08-28T01:34:05.885Z,76.10
2022-08-28T01:36:33.445Z,76.30
2022-08-28T01:39:05.598Z,76.50
2022-08-28T01:41:32.233Z,76.60
2022-08-28T01:43:59.480Z,76.70
2022-08-28T01:46:26.285Z,76.70
2022-08-28T01:48:53.001Z,77.00
2022-08-28T01:51:24.380Z,76.90
2022-08-28T01:53:51.751Z,77.20
2022-08-28T01:56:19.528Z,77.10
2022-08-28T01:58:48.162Z,77.40
2022-08-28T02:01:18.158Z,77.00
2022-08-28T02:03:46.224Z,77.70
2022-08-28T02:06:14.311Z,77.80
2022-08-28T02:08:42.611Z,77.80
2022-08-28T02:11:10.072Z,78.00
2022-08-28T02:13:38.083Z,78.20
2022-08-28T02:16:07.119Z,78.30
2022-08-28T02:18:33.771Z,78.10
2022-08-28T02:21:01.229Z,78.00
2022-08-28T02:23:28.199Z,78.10
2022-08-28T02:25:54.930Z,78.30
2022-08-28T02:28:21.643Z,78.10
2022-08-28T02:30:48.476Z,78.30
2022-08-28T02:33:16.131Z,78.20
2022-08-28T02:35:42.919Z,78.60
2022-08-28T02:38:10.578Z,78.50
2022-08-28T02:40:38.451Z,78.90
2022-08-28T02:43:05.849Z,79.00
2022-08-28T02:45:33.278Z,79.00
2022-08-28T02:48:01.875Z,79.20
2022-08-28T02:50:30.915Z,79.10
2022-08-28T02:52:57.838Z,78.90
2022-08-28T02:55:25.137Z,79.00
2022-08-28T02:57:52.965Z,79.20
2022-08-28T03:00:23.954Z,79.30
2022-08-28T03:02:50.877Z,79.30
2022-08-28T03:05:21.448Z,79.20
2022-08-28T03:07:49.382Z,79.20
2022-08-28T03:10:17.021Z,79.60
2022-08-28T03:12:43.693Z,79.50
2022-08-28T03:15:10.964Z,79.50
2022-08-28T03:17:38.320Z,79.50
2022-08-28T03:20:07.015Z,79.70
2022-08-28T03:22:52.526Z,80.50
2022-08-28T03:25:19.771Z,79.80
2022-08-28T03:27:46.416Z,79.80
2022-08-28T03:30:13.976Z,80.80
2022-08-28T03:32:41.073Z,80.30
2022-08-28T03:35:08.313Z,80.40
2022-08-28T03:37:35.800Z,80.10
2022-08-28T03:40:03.560Z,80.20
2022-08-28T03:42:31.519Z,81.90
2022-08-28T03:44:59.331Z,81.10
2022-08-28T03:47:28.282Z,80.60
2022-08-28T03:49:57.736Z,80.70
2022-08-28T03:52:25.205Z,80.60
2022-08-28T03:54:52.661Z,80.60
2022-08-28T03:57:20.434Z,80.60
2022-08-28T03:59:52.316Z,81.20
2022-08-28T04:02:20.523Z,81.40
2022-08-28T04:04:49.120Z,81.60
2022-08-28T04:07:17.270Z,81.60
2022-08-28T04:09:43.976Z,81.60
2022-08-28T04:12:11.708Z,81.80
2022-08-28T04:14:38.759Z,81.80
2022-08-28T04:17:06.614Z,81.80
2022-08-28T04:19:33.656Z,82.60
2022-08-28T04:22:01.350Z,81.60
2022-08-28T04:24:28.039Z,82.10
2022-08-28T04:26:54.689Z,82.40
2022-08-28T04:29:22.620Z,82.30
2022-08-28T04:31:49.972Z,82.30
2022-08-28T04:34:16.636Z,82.40
2022-08-28T04:36:43.495Z,82.90
2022-08-28T04:39:11.075Z,82.60
2022-08-28T04:41:38.716Z,82.60
2022-08-28T04:44:06.706Z,82.60
2022-08-28T04:46:33.647Z,82.60
2022-08-28T04:49:00.664Z,82.40
2022-08-28T04:51:27.662Z,82.70
2022-08-28T04:53:54.310Z,82.70
2022-08-28T04:56:21.026Z,83.00
2022-08-28T04:58:48.133Z,82.90
2022-08-28T05:01:20.210Z,83.50
2022-08-28T05:03:48.416Z,83.30
2022-08-28T05:06:16.083Z,83.40
2022-08-28T05:08:42.833Z,83.30
2022-08-28T05:11:24.517Z,83.60
2022-08-28T05:14:06.365Z,83.50
2022-08-28T05:16:40.698Z,83.80
2022-08-28T05:19:07.538Z,84.20
2022-08-28T05:21:34.471Z,84.10
2022-08-28T05:24:01.106Z,84.10
2022-08-28T05:26:29.887Z,84.30
2022-08-28T05:28:58.008Z,84.10
2022-08-28T05:31:26.539Z,84.50
2022-08-28T05:33:53.929Z,84.30
2022-08-28T05:36:22.674Z,84.40
2022-08-28T05:38:51.199Z,84.30
2022-08-28T05:41:23.938Z,84.50
2022-08-28T05:43:50.781Z,84.60
2022-08-28T05:46:17.807Z,84.70
2022-08-28T05:48:45.706Z,84.80
2022-08-28T05:51:15.666Z,85.00
2022-08-28T05:53:43.905Z,85.80
2022-08-28T05:56:12.952Z,85.10
2022-08-28T05:58:40.445Z,85.20
2022-08-28T06:01:08.513Z,85.70
2022-08-28T06:03:36.316Z,85.40
2022-08-28T06:06:04.013Z,85.40
2022-08-28T06:08:32.336Z,85.00
2022-08-28T06:11:01.697Z,85.70
2022-08-28T06:13:30.821Z,85.30
2022-08-28T06:15:57.910Z,85.30
2022-08-28T06:18:25.913Z,85.10
2022-08-28T06:20:53.834Z,84.60
2022-08-28T06:23:23.892Z,84.00
2022-08-28T06:25:51.877Z,83.80
2022-08-28T06:28:23.899Z,83.20
2022-08-28T06:31:18.082Z,82.90
2022-08-28T06:33:38.965Z,82.80
2022-08-28T06:36:06.000Z,82.30
2022-08-28T06:38:32.679Z,81.50
2022-08-28T06:41:00.192Z,80.70
2022-08-28T06:43:29.234Z,80.40
2022-08-28T06:45:57.428Z,80.40
2022-08-28T06:48:27.584Z,79.40
2022-08-28T06:50:55.955Z,79.70
2022-08-28T06:53:26.430Z,78.40
2022-08-28T06:56:01.962Z,78.20
2022-08-28T06:58:29.356Z,77.50
2022-08-28T07:01:05.175Z,77.90
2022-08-28T07:03:32.027Z,77.10
2022-08-28T07:06:00.697Z,76.50
2022-08-28T07:08:29.153Z,75.80
2022-08-28T07:10:56.447Z,75.60
2022-08-28T07:13:23.446Z,75.30
2022-08-28T07:15:50.213Z,75.70
2022-08-28T07:18:17.558Z,74.80
2022-08-28T07:20:45.520Z,74.60
2022-08-28T07:23:12.342Z,74.40
2022-08-28T07:25:42.788Z,74.20
2022-08-28T07:28:09.659Z,73.80
2022-08-28T07:30:36.303Z,74.30
2022-08-28T07:33:03.128Z,74.30
2022-08-28T07:35:29.828Z,74.00
2022-08-28T07:37:58.015Z,73.20
2022-08-28T07:40:24.906Z,72.20
2022-08-28T07:43:10.679Z,71.90
2022-08-28T07:45:37.672Z,71.90
2022-08-28T07:48:11.370Z,70.90
2022-08-28T07:50:41.440Z,70.70
2022-08-28T07:53:08.497Z,70.00
2022-08-28T07:55:38.711Z,69.70
2022-08-28T07:58:06.001Z,69.60
2022-08-28T08:00:32.916Z,69.30
2022-08-28T08:02:59.913Z,68.10
2022-08-28T08:05:27.120Z,67.40
2022-08-28T08:07:54.059Z,67.70
2022-08-28T08:10:21.022Z,68.00
2022-08-28T08:12:47.950Z,66.60
2022-08-28T08:15:17.538Z,66.30
2022-08-28T08:17:45.560Z,66.50
2022-08-28T08:20:12.979Z,66.00
2022-08-28T08:22:39.924Z,65.50
2022-08-28T08:25:21.613Z,65.60
2022-08-28T08:27:50.205Z,65.60
2022-08-28T08:30:17.453Z,65.50
2022-08-28T08:32:44.637Z,62.90
2022-08-28T08:35:12.983Z,63.60
2022-08-28T08:37:39.914Z,62.50
2022-08-28T08:40:10.728Z,62.20
2022-08-28T08:42:38.828Z,62.10
2022-08-28T08:45:15.319Z,60.50
2022-08-28T08:47:54.009Z,61.10
2022-08-28T08:50:24.751Z,61.30
2022-08-28T08:53:06.756Z,60.20
2022-08-28T08:55:41.881Z,60.50
2022-08-28T08:58:26.972Z,58.90
2022-08-28T09:01:27.564Z,60.30
2022-08-28T09:04:40.399Z,59.60
2022-08-28T09:07:16.885Z,58.30
2022-08-28T09:09:53.659Z,58.30
2022-08-28T09:12:24.795Z,58.10
2022-08-28T09:15:05.352Z,58.30
2022-08-28T09:17:36.093Z,58.70
2022-08-28T09:20:09.068Z,56.50
2022-08-28T09:22:44.411Z,57.10
2022-08-28T09:25:13.308Z,57.80
2022-08-28T09:27:47.729Z,57.10
2022-08-28T09:30:14.665Z,56.40
2022-08-28T09:32:44.491Z,55.20
2022-08-28T09:35:23.612Z,55.80
2022-08-28T09:37:50.988Z,54.10
2022-08-28T09:40:24.691Z,54.20
2022-08-28T09:43:25.947Z,54.20
2022-08-28T09:46:03.284Z,53.80
2022-08-28T09:48:45.225Z,54.50
2022-08-28T09:51:21.473Z,53.20
2022-08-28T09:53:57.322Z,53.40
2022-08-28T09:56:34.108Z,52.50
2022-08-28T09:59:10.564Z,52.60
2022-08-28T10:01:50.155Z,50.90
2022-08-28T10:04:50.258Z,51.20
2022-08-28T10:07:28.444Z,52.30
2022-08-28T10:10:19.655Z,52.20
2022-08-28T10:13:14.957Z,51.50
2022-08-28T10:15:43.540Z,51.20
2022-08-28T10:18:35.994Z,51.00
2022-08-28T10:21:21.873Z,49.90
2022-08-28T10:24:16.255Z,50.80
2022-08-28T10:27:11.793Z,49.50
2022-08-28T10:29:49.989Z,49.80
2022-08-28T10:32:55.363Z,49.80
2022-08-28T10:35:47.369Z,48.00
2022-08-28T10:38:38.367Z,47.60
2022-08-28T10:41:16.899Z,46.30
2022-08-28T10:43:50.183Z,45.80
2022-08-28T10:46:27.043Z,47.00
2022-08-28T10:49:02.503Z,46.20
2022-08-28T10:51:49.426Z,48.80
2022-08-28T10:54:36.734Z,48.20
2022-08-28T10:57:21.824Z,49.30
2022-08-28T10:59:52.438Z,47.60
2022-08-28T11:02:22.982Z,48.90
2022-08-28T11:04:51.855Z,48.70
2022-08-28T11:07:43.497Z,48.10
2022-08-28T11:10:36.768Z,46.60
2022-08-28T11:13:06.617Z,44.90
2022-08-28T11:15:37.203Z,45.10
2022-08-28T11:18:19.190Z,45.40
2022-08-28T11:21:20.331Z,47.00
2022-08-28T11:24:05.910Z,46.20
2022-08-28T11:26:41.452Z,44.30
2022-08-28T11:29:08.372Z,45.50
2022-08-28T11:31:38.833Z,44.40
2022-08-28T11:34:06.384Z,44.40
2022-08-28T11:36:33.338Z,45.00
2022-08-28T11:39:20.975Z,45.60
2022-08-28T11:42:09.821Z,45.00
2022-08-28T11:44:44.969Z,44.40
2022-08-28T11:47:35.289Z,43.80
2022-08-28T11:50:27.184Z,42.90
2022-08-28T11:53:07.672Z,43.30
2022-08-28T11:55:57.118Z,42.70
2022-08-28T11:58:37.449Z,43.60
2022-08-28T12:01:10.876Z,44.40
2022-08-28T12:03:45.080Z,43.90
2022-08-28T12:06:14.489Z,44.40
2022-08-28T12:08:53.538Z,41.90
2022-08-28T12:11:50.150Z,42.60
2022-08-28T12:14:26.125Z,43.90
2022-08-28T12:16:59.105Z,43.00
2022-08-28T12:19:56.425Z,41.70
2022-08-28T12:22:39.888Z,41.60
2022-08-28T12:25:11.270Z,42.20
2022-08-28T12:27:39.626Z,41.80
2022-08-28T12:30:06.868Z,42.90
2022-08-28T12:32:33.808Z,43.60
2022-08-28T12:35:00.765Z,42.30
2022-08-28T12:37:54.098Z,41.00
2022-08-28T12:40:28.953Z,40.40
2022-08-28T12:43:04.309Z,40.70
2022-08-28T12:45:54.920Z,42.20
2022-08-28T12:48:33.505Z,42.20
2022-08-28T12:51:13.062Z,41.00
2022-08-28T12:53:45.718Z,40.00
2022-08-28T12:56:15.553Z,39.00
2022-08-28T12:58:43.609Z,38.00
2022-08-28T13:01:14.734Z,39.30
2022-08-28T13:03:54.614Z,40.10
2022-08-28T13:06:26.579Z,39.40
2022-08-28T13:09:01.393Z,38.00
2022-08-28T13:11:38.679Z,36.10
2022-08-28T13:14:06.344Z,35.70
2022-08-28T13:16:36.419Z,34.30
2022-08-28T13:19:06.681Z,33.70
2022-08-28T13:21:35.210Z,32.10
2022-08-28T13:24:22.452Z,31.40
2022-08-28T13:27:17.969Z,31.40
2022-08-28T13:30:01.185Z,32.40
2022-08-28T13:32:30.234Z,32.00
2022-08-28T13:35:06.581Z,32.20
2022-08-28T13:37:55.335Z,31.70
2022-08-28T13:43:23.305Z,31.10
2022-08-28T13:45:51.557Z,32.50
2022-08-28T13:48:25.616Z,30.20
2022-08-28T13:51:05.184Z,32.00
2022-08-28T13:53:37.325Z,30.90
2022-08-28T13:56:05.404Z,31.10
2022-08-28T13:58:32.722Z,30.80
2022-08-28T14:00:59.971Z,31.30
2022-08-28T14:03:36.402Z,31.90
2022-08-28T14:06:11.312Z,32.50
2022-08-28T14:08:39.948Z,33.10
2022-08-28T14:11:07.650Z,32.90
2022-08-28T14:13:36.023Z,35.10
2022-08-28T14:16:07.910Z,34.10
2022-08-28T14:18:35.464Z,34.20
2022-08-28T14:21:05.252Z,34.30
2022-08-28T14:23:33.844Z,34.80
2022-08-28T14:26:00.992Z,35.80
2022-08-28T14:28:27.777Z,35.50
2022-08-28T14:30:54.980Z,35.40
2022-08-28T14:33:22.015Z,33.70
2022-08-28T14:35:49.924Z,34.40
2022-08-28T14:38:17.337Z,35.00
2022-08-28T14:40:45.001Z,36.50
2022-08-28T14:43:13.673Z,36.20
2022-08-28T14:45:49.597Z,35.90
2022-08-28T14:48:18.754Z,36.00
2022-08-28T14:50:49.266Z,37.00
2022-08-28T14:53:17.248Z,37.60
2022-08-28T14:55:47.564Z,37.60
2022-08-28T14:58:16.566Z,37.00
2022-08-28T15:00:49.747Z,36.10
2022-08-28T15:03:18.627Z,36.70
2022-08-28T15:05:46.756Z,36.70
2022-08-28T15:08:16.833Z,36.00
2022-08-28T15:10:44.182Z,36.00
2022-08-28T15:13:12.586Z,36.40
2022-08-28T15:15:41.451Z,35.60
2022-08-28T15:18:10.968Z,36.30
2022-08-28T15:20:44.150Z,37.50
2022-08-28T15:23:13.089Z,38.00
2022-08-28T15:25:40.603Z,38.40
2022-08-28T15:28:07.765Z,39.00
2022-08-28T15:30:35.506Z,37.90
2022-08-28T15:33:02.468Z,38.50
2022-08-28T15:35:29.419Z,38.90
2022-08-28T15:37:56.342Z,39.40
2022-08-28T15:40:58.926Z,39.80
2022-08-28T15:43:25.783Z,40.00
2022-08-28T15:45:52.908Z,39.60
2022-08-28T15:48:20.051Z,40.00
2022-08-28T15:50:47.321Z,39.80
2022-08-28T15:53:15.146Z,40.00
2022-08-28T15:55:45.722Z,40.00
2022-08-28T15:58:13.683Z,40.00
2022-08-28T16:00:40.993Z,40.50
2022-08-28T16:03:07.875Z,41.30
2022-08-28T16:05:40.643Z,41.50
2022-08-28T16:08:09.444Z,41.60
2022-08-28T16:10:36.719Z,41.40
2022-08-28T16:13:06.629Z,41.40
2022-08-28T16:15:34.902Z,41.20
2022-08-28T16:18:02.048Z,41.50
2022-08-28T16:20:29.079Z,42.20
2022-08-28T16:22:56.031Z,42.10
2022-08-28T16:25:23.010Z,43.00
2022-08-28T16:27:49.820Z,42.60
2022-08-28T16:30:17.747Z,43.20
2022-08-28T16:32:46.876Z,43.40
2022-08-28T16:35:16.091Z,42.70
2022-08-28T16:37:43.641Z,42.20
2022-08-28T16:40:11.744Z,42.90
2022-08-28T16:42:42.482Z,42.90
2022-08-28T16:45:18.405Z,43.20
2022-08-28T16:47:45.231Z,43.80
2022-08-28T16:50:14.240Z,44.10
2022-08-28T16:52:41.803Z,44.50
2022-08-28T16:55:11.481Z,45.20
2022-08-28T16:57:38.839Z,45.30
2022-08-28T17:00:11.013Z,45.50
2022-08-28T17:02:40.640Z,45.10
2022-08-28T17:05:08.614Z,45.30
2022-08-28T17:07:35.745Z,45.20
2022-08-28T17:10:04.026Z,45.80
2022-08-28T17:12:31.185Z,45.80
2022-08-28T17:14:58.114Z,46.40
2022-08-28T17:17:25.173Z,46.50
2022-08-28T17:19:52.211Z,46.30
2022-08-28T17:22:32.016Z,46.90
2022-08-28T17:25:07.709Z,47.00
2022-08-28T17:27:36.804Z,47.10
2022-08-28T17:30:05.107Z,47.20
2022-08-28T17:32:32.328Z,47.00
2022-08-28T17:34:59.498Z,47.20
2022-08-28T17:37:26.531Z,46.90
2022-08-28T17:39:53.663Z,46.30
2022-08-28T17:42:20.835Z,46.70
2022-08-28T17:44:47.884Z,46.60
2022-08-28T17:47:15.131Z,46.60
2022-08-28T17:49:42.456Z,46.60
2022-08-28T17:52:09.627Z,46.80
2022-08-28T17:54:36.574Z,46.70
2022-08-28T17:57:03.930Z,47.00
2022-08-28T17:59:32.816Z,46.80
2022-08-28T18:01:59.800Z,47.10
2022-08-28T18:04:26.639Z,47.10
2022-08-28T18:06:54.963Z,48.10
2022-08-28T18:09:23.360Z,48.40
2022-08-28T18:11:50.923Z,48.60
2022-08-28T18:14:18.088Z,49.20
2022-08-28T18:16:45.367Z,49.30
2022-08-28T18:19:13.811Z,50.30
2022-08-28T18:21:44.025Z,50.40
2022-08-28T18:24:13.059Z,51.00
2022-08-28T18:26:42.847Z,51.70
2022-08-28T18:29:10.807Z,52.20
2022-08-28T18:31:37.916Z,52.30
2022-08-28T18:34:05.310Z,52.50
2022-08-28T18:36:42.631Z,53.50
2022-08-28T18:39:10.453Z,54.00
2022-08-28T18:41:44.096Z,53.90
2022-08-28T18:44:15.505Z,54.10
2022-08-28T18:46:44.206Z,54.50
2022-08-28T18:49:11.861Z,54.60
2022-08-28T18:51:40.949Z,55.30
2022-08-28T18:54:07.780Z,55.10
2022-08-28T18:56:35.554Z,55.60
2022-08-28T18:59:03.308Z,55.70
2022-08-28T19:01:30.252Z,55.90
2022-08-28T19:03:56.988Z,56.70
2022-08-28T19:06:24.046Z,56.90
2022-08-28T19:08:50.726Z,57.50
2022-08-28T19:11:17.409Z,57.70
2022-08-28T19:13:44.471Z,57.50
2022-08-28T19:16:17.049Z,58.20
2022-08-28T19:18:45.640Z,58.40
2022-08-28T19:21:19.445Z,59.80
2022-08-28T19:23:55.258Z,59.20
2022-08-28T19:26:24.605Z,59.30
2022-08-28T19:28:51.642Z,59.70
2022-08-28T19:31:18.620Z,60.10
2022-08-28T19:33:46.550Z,60.20
2022-08-28T19:36:14.518Z,60.40
2022-08-28T19:38:42.085Z,60.70
2022-08-28T19:41:10.664Z,60.90
2022-08-28T19:43:42.779Z,61.10
2022-08-28T19:46:20.014Z,61.50
2022-08-28T19:48:49.519Z,61.70
